createdAt,value
2022-11-18T00:00:56.717Z,10.49
2022-11-18T00:03:23.740Z,10.48
2022-11-18T00:05:57.674Z,10.50
2022-11-18T00:08:25.800Z,10.50
2022-11-18T00:10:54.064Z,10.47
2022-11-18T00:13:39.467Z,10.41
2022-11-18T00:16:08.760Z,10.47
2022-11-18T00:18:35.511Z,10.46
2022-11-18T00:21:09.757Z,10.46
2022-11-18T00:23:37.305Z,10.44
2022-11-18T00:26:05.915Z,10.42
2022-11-18T00:28:33.723Z,10.50
2022-11-18T00:31:05.359Z,10.46
2022-11-18T00:33:32.346Z,10.42
2022-11-18T00:35:59.043Z,10.43
2022-11-18T00:38:26.784Z,10.43
2022-11-18T00:41:11.295Z,10.43
2022-11-18T00:43:38.568Z,10.38
2022-11-18T00:46:08.200Z,10.35
2022-11-18T00:48:35.512Z,10.35
2022-11-18T00:51:17.150Z,10.28
2022-11-18T00:53:44.595Z,10.36
2022-11-18T00:56:11.694Z,10.27
2022-11-18T00:58:38.514Z,10.24
2022-11-18T01:01:05.345Z,10.26
2022-11-18T01:03:32.085Z,10.24
2022-11-18T01:05:58.758Z,10.17
2022-11-18T01:08:26.057Z,10.18
2022-11-18T01:10:52.811Z,10.13
2022-11-18T01:13:22.929Z,10.18
2022-11-18T01:15:58.165Z,10.04
2022-11-18T01:18:27.962Z,9.96
2022-11-18T01:20:59.992Z,9.97
2022-11-18T01:23:26.627Z,9.98
2022-11-18T01:25:53.434Z,9.85
2022-11-18T01:28:23.528Z,9.82
2022-11-18T01:30:51.097Z,9.76
2022-11-18T01:33:17.918Z,9.85
2022-11-18T01:35:44.836Z,9.78
2022-11-18T01:38:13.831Z,9.78
2022-11-18T01:40:40.954Z,9.77
2022-11-18T01:43:14.123Z,9.81
2022-11-18T01:45:43.628Z,9.79
2022-11-18T01:48:33.625Z,9.69
2022-11-18T01:51:11.076Z,9.66
2022-11-18T01:53:50.033Z,9.66
2022-11-18T01:56:26.772Z,9.69
2022-11-18T01:58:59.226Z,9.62
2022-11-18T02:01:25.803Z,9.64
2022-11-18T02:03:53.939Z,9.52
2022-11-18T02:06:21.156Z,9.59
2022-11-18T02:08:49.160Z,9.51
2022-11-18T02:11:34.537Z,9.48
2022-11-18T02:14:04.449Z,9.44
2022-11-18T02:17:05.995Z,9.35
2022-11-18T02:19:47.633Z,9.40
2022-11-18T02:22:23.558Z,9.35
2022-11-18T02:25:10.780Z,9.40
2022-11-18T02:27:55.917Z,9.39
2022-11-18T02:30:22.629Z,9.43
2022-11-18T02:32:56.740Z,9.42
2022-11-18T02:35:44.137Z,9.42
2022-11-18T02:38:10.635Z,9.28
2022-11-18T02:40:43.313Z,9.27
2022-11-18T02:43:16.963Z,9.29
2022-11-18T02:45:49.485Z,9.32
2022-11-18T02:48:19.686Z,9.28
2022-11-18T02:50:49.659Z,9.34
2022-11-18T02:53:20.598Z,9.40
2022-11-18T02:55:48.328Z,9.49
2022-11-18T02:58:18.026Z,9.41
2022-11-18T03:00:45.004Z,9.46
2022-11-18T03:03:26.871Z,9.44
2022-11-18T03:06:04.529Z,9.41
2022-11-18T03:08:38.611Z,9.35
2022-11-18T03:11:14.539Z,9.32
2022-11-18T03:14:03.884Z,9.30
2022-11-18T03:16:54.778Z,9.24
2022-11-18T03:19:36.694Z,9.31
2022-11-18T03:22:28.943Z,9.24
2022-11-18T03:25:13.899Z,9.26
2022-11-18T03:28:12.934Z,9.22
2022-11-18T03:30:46.329Z,9.26
2022-11-18T03:33:18.251Z,9.13
2022-11-18T03:35:50.482Z,9.10
2022-11-18T03:38:23.482Z,9.12
2022-11-18T03:40:57.444Z,9.08
2022-11-18T03:43:27.336Z,9.05
2022-11-18T03:46:01.237Z,9.07
2022-11-18T03:48:34.225Z,8.99
2022-11-18T03:51:09.843Z,8.99
2022-11-18T03:53:49.567Z,8.93
2022-11-18T03:56:22.620Z,8.92
2022-11-18T03:59:04.458Z,8.86
2022-11-18T04:01:44.009Z,8.83
2022-11-18T04:04:11.658Z,8.82
2022-11-18T04:06:40.093Z,8.81
2022-11-18T04:09:15.133Z,8.80
2022-11-18T04:12:05.126Z,8.83
2022-11-18T04:14:32.838Z,8.76
2022-11-18T04:16:59.425Z,8.77
2022-11-18T04:19:26.097Z,8.76
2022-11-18T04:21:52.768Z,8.75
2022-11-18T04:24:19.412Z,8.69
2022-11-18T04:26:45.998Z,8.70
2022-11-18T04:29:12.694Z,8.70
2022-11-18T04:31:39.334Z,8.68
2022-11-18T04:34:05.909Z,8.72
2022-11-18T04:36:32.488Z,8.64
2022-11-18T04:38:59.148Z,8.65
2022-11-18T04:41:45.763Z,8.67
2022-11-18T04:44:15.647Z,8.62
2022-11-18T04:46:43.407Z,8.64
2022-11-18T04:49:12.675Z,8.65
2022-11-18T04:51:40.295Z,8.64
2022-11-18T04:54:07.503Z,8.64
2022-11-18T04:56:34.139Z,8.67
2022-11-18T04:59:02.787Z,8.61
2022-11-18T05:01:30.139Z,8.70
2022-11-18T05:03:57.086Z,8.67
2022-11-18T05:06:24.213Z,8.69
2022-11-18T05:08:50.893Z,8.70
2022-11-18T05:11:36.044Z,8.76
2022-11-18T05:14:02.774Z,8.70
2022-11-18T05:16:29.358Z,8.69
2022-11-18T05:18:56.123Z,8.70
2022-11-18T05:21:22.734Z,8.69
2022-11-18T05:23:49.726Z,8.63
2022-11-18T05:26:16.310Z,8.66
2022-11-18T05:28:42.994Z,8.60
2022-11-18T05:31:17.472Z,8.56
2022-11-18T05:33:45.004Z,8.58
2022-11-18T05:36:14.692Z,8.60
2022-11-18T05:38:41.718Z,8.55
2022-11-18T05:41:08.930Z,8.56
2022-11-18T05:43:37.102Z,8.56
2022-11-18T05:46:04.232Z,8.62
2022-11-18T05:48:30.917Z,8.60
2022-11-18T05:50:57.599Z,8.67
2022-11-18T05:53:25.403Z,8.69
2022-11-18T05:56:07.423Z,8.78
2022-11-18T05:58:33.997Z,8.80
2022-11-18T06:01:04.083Z,8.95
2022-11-18T06:03:33.312Z,9.11
2022-11-18T06:06:03.365Z,9.12
2022-11-18T06:08:35.293Z,9.18
2022-11-18T06:11:02.325Z,9.32
2022-11-18T06:13:37.209Z,9.35
2022-11-18T06:16:04.184Z,9.48
2022-11-18T06:18:32.714Z,9.52
2022-11-18T06:21:03.552Z,9.65
2022-11-18T06:23:35.369Z,9.69
2022-11-18T06:26:02.391Z,9.80
2022-11-18T06:28:29.771Z,9.90
2022-11-18T06:30:56.359Z,9.99
2022-11-18T06:33:22.958Z,10.05
2022-11-18T06:35:49.546Z,10.07
2022-11-18T06:38:16.235Z,10.09
2022-11-18T06:40:44.801Z,10.14
2022-11-18T06:43:30.759Z,10.28
2022-11-18T06:46:33.378Z,10.36
2022-11-18T06:49:01.248Z,10.46
2022-11-18T06:51:28.652Z,10.48
2022-11-18T06:53:55.298Z,10.42
2022-11-18T06:56:23.300Z,10.41
2022-11-18T06:58:58.657Z,10.57
2022-11-18T07:01:28.071Z,10.69
2022-11-18T07:03:55.137Z,10.80
2022-11-18T07:06:24.640Z,10.86
2022-11-18T07:08:52.102Z,11.01
2022-11-18T07:11:21.720Z,10.93
2022-11-18T07:13:48.413Z,11.02
2022-11-18T07:16:17.729Z,11.06
2022-11-18T07:18:45.900Z,11.23
2022-11-18T07:21:18.217Z,11.34
2022-11-18T07:23:45.712Z,11.30
2022-11-18T07:26:13.621Z,11.48
2022-11-18T07:28:40.696Z,11.56
2022-11-18T07:31:15.228Z,11.74
2022-11-18T07:33:42.678Z,11.79
2022-11-18T07:36:10.957Z,11.88
2022-11-18T07:38:37.919Z,11.86
2022-11-18T07:41:09.331Z,11.90
2022-11-18T07:43:36.651Z,11.86
2022-11-18T07:46:21.266Z,11.90
2022-11-18T07:48:51.100Z,12.02
2022-11-18T07:51:20.648Z,12.00
2022-11-18T07:53:47.929Z,12.11
2022-11-18T07:56:15.256Z,12.23
2022-11-18T07:58:42.835Z,12.14
2022-11-18T08:01:15.490Z,12.35
2022-11-18T08:03:42.719Z,12.51
2022-11-18T08:06:11.242Z,12.64
2022-11-18T08:08:38.429Z,12.86
2022-11-18T08:11:07.751Z,13.01
2022-11-18T08:13:34.943Z,13.15
2022-11-18T08:16:02.448Z,13.18
2022-11-18T08:18:30.787Z,13.24
2022-11-18T08:21:03.029Z,13.41
2022-11-18T08:23:33.090Z,13.59
2022-11-18T08:26:15.338Z,13.61
2022-11-18T08:28:43.162Z,13.65
2022-11-18T08:31:15.583Z,13.70
2022-11-18T08:33:42.263Z,13.60
2022-11-18T08:36:24.648Z,13.73
2022-11-18T08:38:51.261Z,13.78
2022-11-18T08:41:25.460Z,13.89
2022-11-18T08:43:52.063Z,13.94
2022-11-18T08:46:18.631Z,14.04
2022-11-18T08:48:45.311Z,14.09
2022-11-18T08:51:13.100Z,14.08
2022-11-18T08:53:40.161Z,14.34
2022-11-18T08:56:07.469Z,14.41
2022-11-18T08:58:34.132Z,14.56
2022-11-18T09:01:06.243Z,14.77
2022-11-18T09:03:32.940Z,14.79
2022-11-18T09:06:20.135Z,14.92
2022-11-18T09:08:46.992Z,14.79
2022-11-18T09:11:21.709Z,14.66
2022-11-18T09:16:38.419Z,14.76
2022-11-18T09:19:24.797Z,14.80
2022-11-18T09:21:51.952Z,14.97
2022-11-18T09:24:18.941Z,15.05
2022-11-18T09:26:45.795Z,15.27
2022-11-18T09:29:12.379Z,15.64
2022-11-18T09:31:38.973Z,16.19
2022-11-18T09:34:05.555Z,16.57
2022-11-18T09:36:32.156Z,17.12
2022-11-18T09:38:59.956Z,17.78
2022-11-18T09:41:45.192Z,18.90
2022-11-18T09:44:33.435Z,20.27
2022-11-18T09:47:24.934Z,20.69
2022-11-18T09:49:52.343Z,20.64
2022-11-18T09:52:32.678Z,20.53
2022-11-18T09:55:04.074Z,20.47
2022-11-18T09:57:44.259Z,19.45
2022-11-18T10:00:28.034Z,18.86
2022-11-18T10:02:59.099Z,18.53
2022-11-18T10:05:29.399Z,18.42
2022-11-18T10:08:10.884Z,18.57
2022-11-18T10:10:49.759Z,19.35
2022-11-18T10:13:46.329Z,20.74
2022-11-18T10:16:23.174Z,21.22
2022-11-18T10:19:16.756Z,20.50
2022-11-18T10:22:19.408Z,20.60
2022-11-18T10:24:53.645Z,20.18
2022-11-18T10:27:21.080Z,20.90
2022-11-18T10:29:55.691Z,21.23
2022-11-18T10:32:22.389Z,21.44
2022-11-18T10:34:54.299Z,22.58
2022-11-18T10:38:05.835Z,23.96
2022-11-18T10:40:26.415Z,24.84
2022-11-18T10:42:53.130Z,25.49
2022-11-18T10:45:22.442Z,26.03
2022-11-18T10:47:57.808Z,26.82
2022-11-18T10:50:37.782Z,27.25
2022-11-18T10:53:06.898Z,26.62
2022-11-18T10:55:34.278Z,27.05
2022-11-18T10:58:16.237Z,27.33
2022-11-18T11:00:46.515Z,27.63
2022-11-18T11:03:26.654Z,28.29
2022-11-18T11:06:29.945Z,28.29
2022-11-18T11:09:02.640Z,29.63
2022-11-18T11:11:39.979Z,29.85
2022-11-18T11:14:14.839Z,30.39
2022-11-18T11:16:52.849Z,31.10
2022-11-18T11:19:23.408Z,31.62
2022-11-18T11:21:50.984Z,32.12
2022-11-18T11:24:17.865Z,32.58
2022-11-18T11:29:53.947Z,31.51
2022-11-18T11:32:42.823Z,31.76
2022-11-18T11:35:33.214Z,31.91
2022-11-18T11:38:05.174Z,31.53
2022-11-18T11:41:04.236Z,31.88
2022-11-18T11:44:04.673Z,31.62
2022-11-18T11:46:43.257Z,31.35
2022-11-18T11:49:26.517Z,30.80
2022-11-18T11:51:58.431Z,29.51
2022-11-18T11:54:40.245Z,28.77
2022-11-18T11:57:15.511Z,25.80
2022-11-18T11:59:46.636Z,23.98
2022-11-18T12:02:19.059Z,22.78
2022-11-18T12:04:53.898Z,22.17
2022-11-18T12:07:30.881Z,21.90
2022-11-18T12:10:06.130Z,21.30
2022-11-18T12:13:01.612Z,20.56
2022-11-18T12:15:34.256Z,20.17
2022-11-18T12:18:36.307Z,19.48
2022-11-18T12:21:02.930Z,19.13
2022-11-18T12:23:31.443Z,19.12
2022-11-18T12:26:11.549Z,19.07
2022-11-18T12:28:43.759Z,18.80
2022-11-18T12:31:16.356Z,18.70
2022-11-18T12:33:53.182Z,19.07
2022-11-18T12:36:34.996Z,20.60
2022-11-18T12:39:26.331Z,22.06
2022-11-18T12:42:12.589Z,23.70
2022-11-18T12:44:40.176Z,25.03
2022-11-18T12:47:08.759Z,25.27
2022-11-18T12:49:38.201Z,24.36
2022-11-18T12:52:45.342Z,23.80
2022-11-18T12:55:32.194Z,22.05
2022-11-18T12:57:58.818Z,21.20
2022-11-18T13:00:25.589Z,21.26
2022-11-18T13:02:55.165Z,21.60
2022-11-18T13:05:33.509Z,22.33
2022-11-18T13:08:15.920Z,22.26
2022-11-18T13:11:14.689Z,21.32
2022-11-18T13:13:42.475Z,21.40
2022-11-18T13:16:40.722Z,21.73
2022-11-18T13:19:07.562Z,21.08
2022-11-18T13:21:53.169Z,20.51
2022-11-18T13:24:22.143Z,20.15
2022-11-18T13:26:54.682Z,19.93
2022-11-18T13:29:36.431Z,19.62
2022-11-18T13:32:03.043Z,19.41
2022-11-18T13:34:31.391Z,18.81
2022-11-18T13:37:00.031Z,18.39
2022-11-18T13:39:32.337Z,18.30
2022-11-18T13:42:00.916Z,18.22
2022-11-18T13:44:38.605Z,17.82
2022-11-18T13:47:42.657Z,17.41
2022-11-18T13:50:12.596Z,17.22
2022-11-18T13:52:58.209Z,16.93
2022-11-18T13:55:33.822Z,16.72
2022-11-18T13:58:20.325Z,16.42
2022-11-18T14:01:05.479Z,16.09
2022-11-18T14:03:52.322Z,15.97
2022-11-18T14:06:39.837Z,16.01
2022-11-18T14:09:25.937Z,15.90
2022-11-18T14:12:02.100Z,15.80
2022-11-18T14:14:34.749Z,15.67
2022-11-18T14:17:25.893Z,15.64
2022-11-18T14:19:58.402Z,15.57
2022-11-18T14:22:27.773Z,15.53
2022-11-18T14:25:23.760Z,15.53
2022-11-18T14:27:57.740Z,15.45
2022-11-18T14:30:32.107Z,15.42
2022-11-18T14:33:20.844Z,15.31
2022-11-18T14:35:58.227Z,15.30
2022-11-18T14:38:52.016Z,15.07
2022-11-18T14:41:44.307Z,14.94
2022-11-18T14:44:13.692Z,14.90
2022-11-18T14:46:43.291Z,14.86
2022-11-18T14:49:16.947Z,14.77
2022-11-18T14:51:44.681Z,14.81
2022-11-18T14:54:18.184Z,14.73
2022-11-18T14:56:49.636Z,14.70
2022-11-18T14:59:18.106Z,14.71
2022-11-18T15:01:45.963Z,14.68
2022-11-18T15:04:13.385Z,14.70
2022-11-18T15:06:40.341Z,14.72
2022-11-18T15:09:08.053Z,14.71
2022-11-18T15:11:35.579Z,14.77
2022-11-18T15:14:03.405Z,14.80
2022-11-18T15:16:32.780Z,14.79
2022-11-18T15:19:05.023Z,14.79
2022-11-18T15:21:31.966Z,14.80
2022-11-18T15:23:58.552Z,14.74
2022-11-18T15:26:28.836Z,14.77
2022-11-18T15:28:57.584Z,14.72
2022-11-18T15:31:25.467Z,14.72
2022-11-18T15:33:52.818Z,14.72
2022-11-18T15:36:24.273Z,14.73
2022-11-18T15:38:52.222Z,14.71
2022-11-18T15:41:30.399Z,14.70
2022-11-18T15:43:58.757Z,14.75
2022-11-18T15:46:27.634Z,14.75
2022-11-18T15:48:56.319Z,14.78
2022-11-18T15:51:24.719Z,14.76
2022-11-18T15:53:51.595Z,14.75
2022-11-18T15:56:21.291Z,14.75
2022-11-18T15:59:06.097Z,14.73
2022-11-18T16:01:35.085Z,14.72
2022-11-18T16:04:02.652Z,14.66
2022-11-18T16:06:29.626Z,14.67
2022-11-18T16:08:59.884Z,14.65
2022-11-18T16:11:47.415Z,14.71
2022-11-18T16:14:17.000Z,14.66
2022-11-18T16:16:45.488Z,14.63
2022-11-18T16:19:14.689Z,14.62
2022-11-18T16:21:44.087Z,14.68
2022-11-18T16:24:25.928Z,14.66
2022-11-18T16:26:52.651Z,14.63
2022-11-18T16:29:20.779Z,14.58
2022-11-18T16:31:53.000Z,14.63
2022-11-18T16:34:24.600Z,14.63
2022-11-18T16:36:53.578Z,14.63
2022-11-18T16:39:25.892Z,14.72
2022-11-18T16:41:54.862Z,14.68
2022-11-18T16:44:21.543Z,14.65
2022-11-18T16:46:53.341Z,14.61
2022-11-18T16:49:23.671Z,14.59
2022-11-18T16:51:52.564Z,14.54
2022-11-18T16:54:24.471Z,14.45
2022-11-18T16:56:53.160Z,14.60
2022-11-18T16:59:33.040Z,14.53
2022-11-18T17:02:00.556Z,14.54
2022-11-18T17:04:29.091Z,14.48
2022-11-18T17:06:56.319Z,14.47
2022-11-18T17:09:24.632Z,14.45
2022-11-18T17:11:53.502Z,14.40
2022-11-18T17:14:21.805Z,14.38
2022-11-18T17:16:49.449Z,14.31
2022-11-18T17:19:18.569Z,14.28
2022-11-18T17:21:46.328Z,14.32
2022-11-18T17:24:15.574Z,14.25
2022-11-18T17:26:42.518Z,14.19
2022-11-18T17:29:13.093Z,14.24
2022-11-18T17:31:41.508Z,14.18
2022-11-18T17:34:13.108Z,14.16
2022-11-18T17:36:40.179Z,14.10
2022-11-18T17:39:07.026Z,13.98
2022-11-18T17:41:52.304Z,14.00
2022-11-18T17:44:19.356Z,13.92
2022-11-18T17:46:47.362Z,13.90
2022-11-18T17:49:18.093Z,13.78
2022-11-18T17:51:46.128Z,13.80
2022-11-18T17:54:14.299Z,13.77
2022-11-18T17:56:41.144Z,13.89
2022-11-18T17:59:07.806Z,13.85
2022-11-18T18:01:34.600Z,13.87
2022-11-18T18:04:01.428Z,13.83
2022-11-18T18:06:28.023Z,13.83
2022-11-18T18:08:58.511Z,13.76
2022-11-18T18:11:26.126Z,13.77
2022-11-18T18:14:11.527Z,13.78
2022-11-18T18:16:44.357Z,13.83
2022-11-18T18:19:13.753Z,13.94
2022-11-18T18:21:40.785Z,13.96
2022-11-18T18:24:08.276Z,13.97
2022-11-18T18:26:35.013Z,13.89
2022-11-18T18:29:02.329Z,14.00
2022-11-18T18:31:29.307Z,13.95
2022-11-18T18:33:56.060Z,14.03
2022-11-18T18:36:25.266Z,14.08
2022-11-18T18:38:52.602Z,14.01
2022-11-18T18:41:21.813Z,14.03
2022-11-18T18:43:49.566Z,14.02
2022-11-18T18:46:34.010Z,13.96
2022-11-18T18:49:00.804Z,13.95
2022-11-18T18:51:28.448Z,13.93
2022-11-18T18:53:56.629Z,13.86
2022-11-18T18:56:23.455Z,13.90
2022-11-18T18:58:50.125Z,13.93
2022-11-18T19:01:19.871Z,13.74
2022-11-18T19:03:46.942Z,13.77
2022-11-18T19:06:53.172Z,13.72
2022-11-18T19:09:21.604Z,13.64
2022-11-18T19:12:07.075Z,13.52
2022-11-18T19:14:35.133Z,13.43
2022-11-18T19:17:06.668Z,13.38
2022-11-18T19:19:56.301Z,13.37
2022-11-18T19:22:23.111Z,13.36
2022-11-18T19:24:51.006Z,13.23
2022-11-18T19:27:23.789Z,13.22
2022-11-18T19:29:50.542Z,13.20
2022-11-18T19:32:17.207Z,13.09
2022-11-18T19:34:43.807Z,13.21
2022-11-18T19:37:10.761Z,13.09
2022-11-18T19:39:38.633Z,13.00
2022-11-18T19:42:05.845Z,13.07
2022-11-18T19:44:32.465Z,13.11
2022-11-18T19:46:59.266Z,13.06
2022-11-18T19:49:25.913Z,13.06
2022-11-18T19:51:52.579Z,13.08
2022-11-18T19:54:19.212Z,13.08
2022-11-18T19:56:45.899Z,12.93
2022-11-18T19:59:13.109Z,12.97
2022-11-18T20:01:40.261Z,12.90
2022-11-18T20:04:06.997Z,12.90
2022-11-18T20:06:35.595Z,12.90
2022-11-18T20:09:03.673Z,12.88
2022-11-18T20:11:30.268Z,12.95
2022-11-18T20:13:56.937Z,12.97
2022-11-18T20:16:25.509Z,12.94
2022-11-18T20:18:54.265Z,12.97
2022-11-18T20:21:21.990Z,13.01
2022-11-18T20:23:50.902Z,13.00
2022-11-18T20:26:20.341Z,13.09
2022-11-18T20:28:52.869Z,13.12
2022-11-18T20:31:23.211Z,13.23
2022-11-18T20:33:52.000Z,13.32
2022-11-18T20:36:21.258Z,13.44
2022-11-18T20:38:56.385Z,13.53
2022-11-18T20:41:24.134Z,13.52
2022-11-18T20:43:50.968Z,13.64
2022-11-18T20:46:20.922Z,13.70
2022-11-18T20:48:49.024Z,13.70
2022-11-18T20:51:19.386Z,13.71
2022-11-18T20:53:46.282Z,13.72
2022-11-18T20:56:15.820Z,13.72
2022-11-18T20:58:42.545Z,13.64
2022-11-18T21:01:15.124Z,13.65
2022-11-18T21:03:43.041Z,13.73
2022-11-18T21:06:14.255Z,13.71
2022-11-18T21:08:42.438Z,13.78
2022-11-18T21:11:13.542Z,13.65
2022-11-18T21:13:59.182Z,13.80
2022-11-18T21:16:27.357Z,13.71
2022-11-18T21:18:54.676Z,13.67
2022-11-18T21:21:39.727Z,13.85
2022-11-18T21:24:07.067Z,13.83
2022-11-18T21:26:35.181Z,13.87
2022-11-18T21:29:03.730Z,13.86
2022-11-18T21:31:30.956Z,13.91
2022-11-18T21:33:57.739Z,13.87
2022-11-18T21:36:25.933Z,13.86
2022-11-18T21:38:52.970Z,13.91
2022-11-18T21:41:19.771Z,13.94
2022-11-18T21:46:35.099Z,13.84
2022-11-18T21:49:02.625Z,13.91
2022-11-18T21:51:31.597Z,13.97
2022-11-18T21:53:59.503Z,13.96
2022-11-18T21:56:31.383Z,13.91
2022-11-18T21:59:00.896Z,14.01
2022-11-18T22:01:30.167Z,14.00
2022-11-18T22:03:58.727Z,14.03
2022-11-18T22:06:29.626Z,14.05
2022-11-18T22:08:56.611Z,14.06
2022-11-18T22:11:24.184Z,14.07
2022-11-18T22:13:52.132Z,14.15
2022-11-18T22:16:24.271Z,14.23
2022-11-18T22:18:58.102Z,14.27
2022-11-18T22:21:27.103Z,14.22
2022-11-18T22:23:57.958Z,14.21
2022-11-18T22:26:24.544Z,14.20
2022-11-18T22:28:56.800Z,14.20
2022-11-18T22:31:25.416Z,14.15
2022-11-18T22:33:52.650Z,14.11
2022-11-18T22:36:21.552Z,14.01
2022-11-18T22:38:48.453Z,14.11
2022-11-18T22:41:34.976Z,14.18
2022-11-18T22:44:07.392Z,14.09
2022-11-18T22:46:38.782Z,14.04
2022-11-18T22:49:07.438Z,14.05
2022-11-18T22:51:35.051Z,14.09
2022-11-18T22:54:36.387Z,14.08
2022-11-18T22:56:48.537Z,14.15
2022-11-18T22:59:15.177Z,14.19
2022-11-18T23:01:41.924Z,14.21
2022-11-18T23:04:08.529Z,14.35
2022-11-18T23:06:35.237Z,14.34
2022-11-18T23:09:02.386Z,14.37
2022-11-18T23:11:48.696Z,14.40
2022-11-18T23:14:15.521Z,14.44
2022-11-18T23:16:42.821Z,14.39
2022-11-18T23:19:17.444Z,14.46
2022-11-18T23:21:45.388Z,14.39
2022-11-18T23:24:13.827Z,14.34
2022-11-18T23:26:41.078Z,14.31
2022-11-18T23:29:08.035Z,14.34
2022-11-18T23:31:34.667Z,14.34
2022-11-18T23:34:01.581Z,14.23
2022-11-18T23:36:28.593Z,14.21
2022-11-18T23:38:55.287Z,14.30
2022-11-18T23:41:22.349Z,14.32
2022-11-18T23:43:49.633Z,14.29
2022-11-18T23:46:17.840Z,14.31
2022-11-18T23:48:45.490Z,14.26
2022-11-18T23:51:17.517Z,14.30
2022-11-18T23:53:45.499Z,14.23
2022-11-18T23:56:15.273Z,14.25
2022-11-18T23:58:44.350Z,14.20
